Terminal Aerodrome Forecast
Issued by NWS

Home | Current Version | Previous Version | Text Only | Print | Product List | Glossary On
Versions: 1 2 3 4 5 6 7 8 9 10 11 12 13 14 15 16 17
744
FTUS41 KGYX 261120
TAFAUG
TAF
KAUG 261120Z 2612/2712 01006KT 2SM -RADZ BR OVC003 WS020/13035KT
      TEMPO 2612/2616 1SM -RADZ BR OVC002
     FM262100 09005KT 1SM -RADZ BR OVC003
     FM270100 09004KT 1/2SM -DZ FG OVC002=

USA.gov is the U.S. government's official web portal to all federal, state and local government web resources and services.